Time;durP1;ratioP1;P1;durP2;ratioP2;P2;SDS_P1;SDS_P2;PMS_P1;PMS_P2;Temp;Humidity;BMP_temperature;BMP_pressure;BME280_temperature;BME280_humidity;BME280_pressure;Samples;Min_cycle;Max_cycle;Signal;HPM_P1;HPM_P2
2022/08/15 00:02:17;;;;;;;;;;;;;;;;;;4992250;28;20451;-68
2022/08/15 00:04:43;;;;;;;;;;;;;;;;;;4992023;28;19914;-68
2022/08/15 00:07:08;;;;;;;;;;;;;;;;;;4983776;28;19922;-68
2022/08/15 00:09:33;;;;;;;;;;;;;;;;;;4993728;28;19956;-68
2022/08/15 00:11:58;;;;;;;;;;;;;;;;;;5001824;28;19964;-68
2022/08/15 00:14:23;;;;;;;;;;;;;;;;;;4993868;28;19920;-68
2022/08/15 00:16:48;;;;;;;;;;;;;;;;;;4997165;28;19968;-68
2022/08/15 00:19:15;;;;;;;;;;;;;;;;;;5013530;28;19909;-68
2022/08/15 00:21:44;;;;;;;;;;;;;;;;;;4991263;28;19917;-68
2022/08/15 00:24:09;;;;;;;;;;;;;;;;;;4994369;28;20275;-68
2022/08/15 00:26:34;;;;;;;;;;;;;;;;;;4999064;28;19921;-68
2022/08/15 00:28:59;;;;;;;;;;;;;;;;;;4991781;28;19914;-68
2022/08/15 00:31:24;;;;;;;;;;;;;;;;;;4993604;28;19914;-68
2022/08/15 00:33:50;;;;;;;;;;;;;;;;;;4991209;28;19913;-69
2022/08/15 00:36:15;;;;;;;;;;;;;;;;;;4992762;28;19953;-68
2022/08/15 00:38:41;;;;;;;;;;;;;;;;;;5004627;28;20361;-69
2022/08/15 00:43:50;;;;;;;;;;;;;;;;;;4992932;28;19916;-68
2022/08/15 00:46:15;;;;;;;;;;;;;;;;;;4996491;28;19913;-68
2022/08/15 00:48:43;;;;;;;;;;;;;;;;;;5003367;28;20384;-68
2022/08/15 00:51:08;;;;;;;;;;;;;;;;;;4990405;28;19914;-68
2022/08/15 00:53:33;;;;;;;;;;;;;;;;;;4991826;28;19914;-67
2022/08/15 00:55:59;;;;;;;;;;;;;;;;;;4997868;28;19914;-68
2022/08/15 00:58:24;;;;;;;;;;;;;;;;;;4995709;28;19925;-68
2022/08/15 01:00:49;;;;;;;;;;;;;;;;;;4998026;28;19933;-69
2022/08/15 01:03:14;;;;;;;;;;;;;;;;;;4992492;28;19937;-68
2022/08/15 01:05:40;;;;;;;;;;;;;;;;;;4990123;28;19913;-68
2022/08/15 01:08:05;;;;;;;;;;;;;;;;;;4992327;28;19914;-68
2022/08/15 01:10:31;;;;;;;;;;;;;;;;;;4996432;28;19921;-68
2022/08/15 01:12:56;;;;;;;;;;;;;;;;;;4994234;28;20008;-68
2022/08/15 01:15:21;;;;;;;;;;;;;;;;;;4993000;28;20360;-69
2022/08/15 01:17:46;;;;;;;;;;;;;;;;;;4987052;28;20393;-69
2022/08/15 01:20:11;;;;;;;;;;;;;;;;;;4992370;28;19921;-68
2022/08/15 01:22:36;;;;;;;;;;;;;;;;;;4983873;28;19972;-68
2022/08/15 01:25:03;;;;;;;;;;;;;;;;;;4989135;28;19922;-67
2022/08/15 01:27:29;;;;;;;;;;;;;;;;;;4990917;28;19909;-68
2022/08/15 01:29:55;;;;;;;;;;;;;;;;;;4992024;28;19914;-67
2022/08/15 01:32:21;;;;;;;;;;;;;;;;;;4975516;28;19921;-68
2022/08/15 01:34:46;;;;;;;;;;;;;;;;;;4988293;28;19914;-70
2022/08/15 01:37:11;;;;;;;;;;;;;;;;;;4988526;28;19941;-68
2022/08/15 01:39:39;;;;;;;;;;;;;;;;;;4995587;28;20012;-68
2022/08/15 01:42:05;;;;;;;;;;;;;;;;;;4993146;28;19965;-68
2022/08/15 01:44:30;;;;;;;;;;;;;;;;;;4988640;28;20334;-68
2022/08/15 01:46:55;;;;;;;;;;;;;;;;;;4992850;28;19910;-69
2022/08/15 01:49:21;;;;;;;;;;;;;;;;;;4990483;28;19922;-69
2022/08/15 01:51:47;;;;;;;;;;;;;;;;;;4986588;28;19918;-68
2022/08/15 01:54:12;;;;;;;;;;;;;;;;;;4987312;28;19913;-67
2022/08/15 01:56:37;;;;;;;;;;;;;;;;;;4992612;28;20385;-67
2022/08/15 01:59:02;;;;;;;;;;;;;;;;;;4991119;28;19917;-67
2022/08/15 02:01:27;;;;;;;;;;;;;;;;;;4987707;28;19989;-68
2022/08/15 02:03:52;;;;;;;;;;;;;;;;;;4989315;28;20469;-68
2022/08/15 02:06:18;;;;;;;;;;;;;;;;;;4996465;28;19909;-68
2022/08/15 02:08:43;;;;;;;;;;;;;;;;;;4994692;28;19924;-68
2022/08/15 02:11:09;;;;;;;;;;;;;;;;;;4989453;28;20385;-68
2022/08/15 02:13:34;;;;;;;;;;;;;;;;;;4988191;28;19914;-68
2022/08/15 02:16:01;;;;;;;;;;;;;;;;;;4984564;28;19921;-68
2022/08/15 02:18:26;;;;;;;;;;;;;;;;;;5009184;28;19929;-67
2022/08/15 02:20:51;;;;;;;;;;;;;;;;;;4994416;28;19918;-68
2022/08/15 02:23:16;;;;;;;;;;;;;;;;;;4992832;28;19924;-68
2022/08/15 02:25:41;;;;;;;;;;;;;;;;;;4987942;28;19920;-68
2022/08/15 02:28:06;;;;;;;;;;;;;;;;;;5007166;28;19917;-67
2022/08/15 02:30:33;;;;;;;;;;;;;;;;;;5011608;28;19913;-67
2022/08/15 02:32:58;;;;;;;;;;;;;;;;;;5011997;28;19945;-68
2022/08/15 02:35:23;;;;;;;;;;;;;;;;;;4989959;28;19949;-66
2022/08/15 02:37:49;;;;;;;;;;;;;;;;;;4982861;28;19983;-68
2022/08/15 02:40:14;;;;;;;;;;;;;;;;;;4991702;28;19914;-68
2022/08/15 02:42:40;;;;;;;;;;;;;;;;;;4995658;28;19917;-69
2022/08/15 02:45:05;;;;;;;;;;;;;;;;;;4995165;28;19929;-69
2022/08/15 02:47:33;;;;;;;;;;;;;;;;;;4980373;28;19914;-69
2022/08/15 02:50:01;;;;;;;;;;;;;;;;;;4997020;28;19948;-69
2022/08/15 02:52:27;;;;;;;;;;;;;;;;;;4999968;28;19936;-68
2022/08/15 02:54:52;;;;;;;;;;;;;;;;;;5000990;28;20378;-69
2022/08/15 02:57:17;;;;;;;;;;;;;;;;;;4994493;28;20016;-67
2022/08/15 02:59:42;;;;;;;;;;;;;;;;;;4994218;28;20354;-67
2022/08/15 03:02:08;;;;;;;;;;;;;;;;;;4989080;28;20334;-68
2022/08/15 03:04:35;;;;;;;;;;;;;;;;;;4985458;28;19957;-66
2022/08/15 03:07:00;;;;;;;;;;;;;;;;;;4992951;28;19942;-68
2022/08/15 03:09:26;;;;;;;;;;;;;;;;;;4997305;28;19985;-67
2022/08/15 03:11:51;;;;;;;;;;;;;;;;;;4995457;28;19972;-69
2022/08/15 03:14:16;;;;;;;;;;;;;;;;;;4995748;28;20012;-67
2022/08/15 03:16:43;;;;;;;;;;;;;;;;;;4999719;28;19917;-67
2022/08/15 03:19:08;;;;;;;;;;;;;;;;;;4989859;28;19914;-68
2022/08/15 03:21:35;;;;;;;;;;;;;;;;;;4993081;28;20306;-69
2022/08/15 03:24:00;;;;;;;;;;;;;;;;;;4992737;28;19914;-67
2022/08/15 03:26:26;;;;;;;;;;;;;;;;;;4996117;28;19965;-69
2022/08/15 03:28:51;;;;;;;;;;;;;;;;;;4987570;28;19968;-66
2022/08/15 03:31:16;;;;;;;;;;;;;;;;;;4994387;28;20072;-68
2022/08/15 03:33:41;;;;;;;;;;;;;;;;;;4994084;28;19914;-67
2022/08/15 03:36:06;;;;;;;;;;;;;;;;;;4993117;28;19918;-67
2022/08/15 03:38:32;;;;;;;;;;;;;;;;;;4986513;28;19922;-69
2022/08/15 03:40:57;;;;;;;;;;;;;;;;;;5002196;28;20300;-67
2022/08/15 03:43:22;;;;;;;;;;;;;;;;;;5005190;28;20374;-67
2022/08/15 03:45:47;;;;;;;;;;;;;;;;;;4995270;28;20485;-67
2022/08/15 03:48:13;;;;;;;;;;;;;;;;;;4992248;28;19914;-68
2022/08/15 03:50:38;;;;;;;;;;;;;;;;;;4993663;28;19921;-68
2022/08/15 03:53:03;;;;;;;;;;;;;;;;;;4991108;28;19918;-69
2022/08/15 03:55:28;;;;;;;;;;;;;;;;;;4972286;28;19914;-67
2022/08/15 03:57:53;;;;;;;;;;;;;;;;;;4994927;28;20001;-68
2022/08/15 04:00:18;;;;;;;;;;;;;;;;;;4991924;28;19969;-69
2022/08/15 04:02:43;;;;;;;;;;;;;;;;;;4990295;28;19925;-68
2022/08/15 04:05:09;;;;;;;;;;;;;;;;;;4994264;28;19910;-68
2022/08/15 04:07:35;;;;;;;;;;;;;;;;;;4993282;28;19914;-68
2022/08/15 04:10:03;;;;;;;;;;;;;;;;;;4993744;28;19913;-68
2022/08/15 04:12:28;;;;;;;;;;;;;;;;;;4991311;28;20026;-68
2022/08/15 04:14:54;;;;;;;;;;;;;;;;;;4975245;28;20374;-68
2022/08/15 04:17:19;;;;;;;;;;;;;;;;;;4984631;28;19921;-67
2022/08/15 04:19:45;;;;;;;;;;;;;;;;;;5012768;28;19913;-68
2022/08/15 04:22:10;;;;;;;;;;;;;;;;;;4999484;28;20080;-68
2022/08/15 04:24:35;;;;;;;;;;;;;;;;;;5005524;28;20016;-67
2022/08/15 04:27:01;;;;;;;;;;;;;;;;;;5011904;28;19914;-67
2022/08/15 04:29:26;;;;;;;;;;;;;;;;;;5012777;28;20012;-68
2022/08/15 04:31:51;;;;;;;;;;;;;;;;;;5006649;28;20366;-69
2022/08/15 04:34:16;;;;;;;;;;;;;;;;;;4997709;28;19928;-67
2022/08/15 04:36:41;;;;;;;;;;;;;;;;;;5012748;28;19953;-68
2022/08/15 04:39:06;;;;;;;;;;;;;;;;;;5009256;28;19992;-67
2022/08/15 04:41:32;;;;;;;;;;;;;;;;;;4989088;28;19918;-68
2022/08/15 04:43:57;;;;;;;;;;;;;;;;;;5006094;28;20456;-69
2022/08/15 04:46:22;;;;;;;;;;;;;;;;;;5013373;28;20465;-69
2022/08/15 04:48:47;;;;;;;;;;;;;;;;;;5010571;28;19918;-68
2022/08/15 04:51:12;;;;;;;;;;;;;;;;;;5001545;28;19976;-68
2022/08/15 04:53:39;;;;;;;;;;;;;;;;;;5000768;28;19917;-67
2022/08/15 04:56:05;;;;;;;;;;;;;;;;;;5008454;28;19914;-68
2022/08/15 04:58:31;;;;;;;;;;;;;;;;;;5012557;28;19920;-67
2022/08/15 05:00:56;;;;;;;;;;;;;;;;;;5012763;28;20016;-67
2022/08/15 05:03:21;;;;;;;;;;;;;;;;;;5008936;28;20383;-68
2022/08/15 05:05:47;;;;;;;;;;;;;;;;;;5002651;28;20373;-66
2022/08/15 05:08:12;;;;;;;;;;;;;;;;;;5003085;28;20304;-69
2022/08/15 05:10:38;;;;;;;;;;;;;;;;;;4997394;28;19948;-68
2022/08/15 05:13:03;;;;;;;;;;;;;;;;;;5010797;28;20439;-67
2022/08/15 05:15:28;;;;;;;;;;;;;;;;;;5011370;28;19937;-68
2022/08/15 05:17:53;;;;;;;;;;;;;;;;;;5006674;28;19927;-68
2022/08/15 05:20:19;;;;;;;;;;;;;;;;;;4994489;28;19921;-68
2022/08/15 05:22:44;;;;;;;;;;;;;;;;;;5008822;28;19917;-67
2022/08/15 05:25:09;;;;;;;;;;;;;;;;;;4998245;28;20197;-67
2022/08/15 05:27:34;;;;;;;;;;;;;;;;;;5010189;28;19913;-68
2022/08/15 05:29:59;;;;;;;;;;;;;;;;;;5006315;28;19956;-67
2022/08/15 05:32:24;;;;;;;;;;;;;;;;;;5009692;28;19913;-69
2022/08/15 05:34:50;;;;;;;;;;;;;;;;;;5008586;28;19924;-68
2022/08/15 05:37:15;;;;;;;;;;;;;;;;;;5008698;28;19913;-67
2022/08/15 05:39:40;;;;;;;;;;;;;;;;;;5012383;28;20340;-68
2022/08/15 05:42:06;;;;;;;;;;;;;;;;;;5010172;28;19917;-68
2022/08/15 05:44:31;;;;;;;;;;;;;;;;;;4992897;28;19984;-69
2022/08/15 05:46:56;;;;;;;;;;;;;;;;;;5007044;28;19917;-69
2022/08/15 05:49:21;;;;;;;;;;;;;;;;;;5012040;28;20289;-68
2022/08/15 05:51:47;;;;;;;;;;;;;;;;;;5007675;28;19945;-68
2022/08/15 05:54:12;;;;;;;;;;;;;;;;;;5019077;28;20374;-68
2022/08/15 05:56:37;;;;;;;;;;;;;;;;;;5008569;28;19953;-69
2022/08/15 05:59:03;;;;;;;;;;;;;;;;;;5012501;28;19913;-68
2022/08/15 06:01:29;;;;;;;;;;;;;;;;;;5010873;28;19913;-69
2022/08/15 06:03:54;;;;;;;;;;;;;;;;;;5007859;28;19941;-68
2022/08/15 06:06:19;;;;;;;;;;;;;;;;;;5010063;28;19983;-67
2022/08/15 06:08:44;;;;;;;;;;;;;;;;;;4993648;28;19909;-67
2022/08/15 06:11:11;;;;;;;;;;;;;;;;;;5008166;28;19961;-67
2022/08/15 06:13:36;;;;;;;;;;;;;;;;;;5017660;28;20228;-68
2022/08/15 06:16:01;;;;;;;;;;;;;;;;;;5014744;28;20052;-67
2022/08/15 06:18:26;;;;;;;;;;;;;;;;;;5009238;28;19964;-66
2022/08/15 06:20:51;;;;;;;;;;;;;;;;;;5011088;28;19920;-67
2022/08/15 06:23:17;;;;;;;;;;;;;;;;;;5013926;28;20074;-66
2022/08/15 06:25:42;;;;;;;;;;;;;;;;;;4992469;28;19913;-67
2022/08/15 06:28:07;;;;;;;;;;;;;;;;;;5004145;28;20072;-67
2022/08/15 06:30:32;;;;;;;;;;;;;;;;;;5006958;28;19918;-69
2022/08/15 06:32:57;;;;;;;;;;;;;;;;;;5011656;28;19917;-67
2022/08/15 06:35:23;;;;;;;;;;;;;;;;;;5010201;28;19937;-67
2022/08/15 06:37:48;;;;;;;;;;;;;;;;;;5009902;28;19960;-68
2022/08/15 06:40:13;;;;;;;;;;;;;;;;;;5008404;28;19918;-67
2022/08/15 06:42:39;;;;;;;;;;;;;;;;;;5006926;28;19964;-68
2022/08/15 06:45:04;;;;;;;;;;;;;;;;;;5004374;28;19917;-68
2022/08/15 06:47:29;;;;;;;;;;;;;;;;;;5008619;28;20297;-68
2022/08/15 06:49:54;;;;;;;;;;;;;;;;;;5009069;28;19914;-68
2022/08/15 06:52:19;;;;;;;;;;;;;;;;;;5010319;28;19969;-67
2022/08/15 06:54:45;;;;;;;;;;;;;;;;;;4999924;28;19913;-67
2022/08/15 06:57:10;;;;;;;;;;;;;;;;;;5013176;28;20337;-67
2022/08/15 06:59:36;;;;;;;;;;;;;;;;;;5012619;28;20555;-68
2022/08/15 07:02:01;;;;;;;;;;;;;;;;;;5026874;28;19917;-67
2022/08/15 07:04:26;;;;;;;;;;;;;;;;;;5013902;28;20400;-66
2022/08/15 07:06:52;;;;;;;;;;;;;;;;;;5005359;28;19914;-68
2022/08/15 07:09:17;;;;;;;;;;;;;;;;;;5010520;28;19913;-68
2022/08/15 07:11:42;;;;;;;;;;;;;;;;;;5011122;28;19917;-67
2022/08/15 07:14:07;;;;;;;;;;;;;;;;;;4995955;28;19914;-67
2022/08/15 07:16:32;;;;;;;;;;;;;;;;;;5007939;28;20304;-67
2022/08/15 07:18:57;;;;;;;;;;;;;;;;;;4994158;28;20286;-67
2022/08/15 07:21:25;;;;;;;;;;;;;;;;;;4987815;28;20342;-68
2022/08/15 07:23:50;;;;;;;;;;;;;;;;;;4992332;28;19913;-67
2022/08/15 07:26:15;;;;;;;;;;;;;;;;;;4994331;28;19980;-67
2022/08/15 07:28:41;;;;;;;;;;;;;;;;;;4976859;28;20377;-68
2022/08/15 07:31:06;;;;;;;;;;;;;;;;;;4992874;28;19957;-67
2022/08/15 07:33:31;;;;;;;;;;;;;;;;;;4991332;28;19913;-67
2022/08/15 07:35:56;;;;;;;;;;;;;;;;;;4994892;28;20436;-67
2022/08/15 07:38:21;;;;;;;;;;;;;;;;;;4991834;28;19914;-67
2022/08/15 07:40:48;;;;;;;;;;;;;;;;;;4992982;28;19917;-66
2022/08/15 07:43:13;;;;;;;;;;;;;;;;;;4992151;28;19965;-66
2022/08/15 07:45:38;;;;;;;;;;;;;;;;;;4991680;28;20305;-67
2022/08/15 07:48:03;;;;;;;;;;;;;;;;;;4994492;28;20398;-66
2022/08/15 07:50:29;;;;;;;;;;;;;;;;;;4987906;28;19921;-67
2022/08/15 07:52:55;;;;;;;;;;;;;;;;;;4988833;28;19921;-67
2022/08/15 07:55:20;;;;;;;;;;;;;;;;;;5003987;28;19961;-67
2022/08/15 07:57:45;;;;;;;;;;;;;;;;;;4993125;28;19914;-68
2022/08/15 08:00:11;;;;;;;;;;;;;;;;;;4991953;28;19913;-67
2022/08/15 08:02:36;;;;;;;;;;;;;;;;;;5005716;28;19925;-67
2022/08/15 08:05:02;;;;;;;;;;;;;;;;;;4975431;28;19914;-67
2022/08/15 08:07:27;;;;;;;;;;;;;;;;;;5007178;28;19917;-67
2022/08/15 08:09:55;;;;;;;;;;;;;;;;;;4992726;28;19920;-67
2022/08/15 08:12:20;;;;;;;;;;;;;;;;;;4992699;28;20386;-68
2022/08/15 08:14:47;;;;;;;;;;;;;;;;;;4983401;28;19937;-67
2022/08/15 08:17:12;;;;;;;;;;;;;;;;;;4990573;28;19922;-68
2022/08/15 08:19:37;;;;;;;;;;;;;;;;;;4989306;28;19918;-67
2022/08/15 08:22:02;;;;;;;;;;;;;;;;;;4989551;28;19922;-68
2022/08/15 08:24:27;;;;;;;;;;;;;;;;;;4988458;28;20655;-68
2022/08/15 08:26:53;;;;;;;;;;;;;;;;;;4998367;28;20350;-68
2022/08/15 08:29:19;;;;;;;;;;;;;;;;;;4983886;28;20012;-67
2022/08/15 08:31:44;;;;;;;;;;;;;;;;;;4975608;28;20393;-67
2022/08/15 08:34:09;;;;;;;;;;;;;;;;;;4993276;28;19910;-67
2022/08/15 08:36:34;;;;;;;;;;;;;;;;;;4986739;28;19960;-67
2022/08/15 08:38:59;;;;;;;;;;;;;;;;;;4993178;28;20001;-66
2022/08/15 08:41:24;;;;;;;;;;;;;;;;;;4987077;28;19970;-67
2022/08/15 08:43:50;;;;;;;;;;;;;;;;;;4982097;28;19914;-67
2022/08/15 08:46:15;;;;;;;;;;;;;;;;;;4958106;28;20460;-67
2022/08/15 08:48:40;;;;;;;;;;;;;;;;;;4994392;28;20338;-67
2022/08/15 08:51:05;;;;;;;;;;;;;;;;;;4982772;28;20382;-68
2022/08/15 08:53:30;;;;;;;;;;;;;;;;;;4984476;28;20396;-68
2022/08/15 08:55:56;;;;;;;;;;;;;;;;;;5009189;28;19941;-67
2022/08/15 08:58:21;;;;;;;;;;;;;;;;;;4978984;28;19918;-68
2022/08/15 09:00:46;;;;;;;;;;;;;;;;;;4989190;28;19937;-66
2022/08/15 09:03:11;;;;;;;;;;;;;;;;;;4981110;28;19922;-67
2022/08/15 09:05:37;;;;;;;;;;;;;;;;;;4983055;28;19918;-67
2022/08/15 09:08:02;;;;;;;;;;;;;;;;;;4990663;28;20025;-68
2022/08/15 09:10:29;;;;;;;;;;;;;;;;;;4971047;28;19925;-66
2022/08/15 09:15:38;;;;;;;;;;;;;;;;;;4991563;28;19921;-67
2022/08/15 09:18:04;;;;;;;;;;;;;;;;;;4983898;28;19918;-67
2022/08/15 09:20:29;;;;;;;;;;;;;;;;;;4992409;28;19976;-66
2022/08/15 09:22:55;;;;;;;;;;;;;;;;;;4987402;28;19922;-65
2022/08/15 09:25:20;;;;;;;;;;;;;;;;;;4972373;28;20017;-67
2022/08/15 09:27:45;;;;;;;;;;;;;;;;;;4990937;28;19992;-66
2022/08/15 09:30:11;;;;;;;;;;;;;;;;;;4989129;28;19914;-67
2022/08/15 09:32:36;;;;;;;;;;;;;;;;;;4966510;28;19973;-66
2022/08/15 09:35:01;;;;;;;;;;;;;;;;;;4988309;28;19957;-67
2022/08/15 09:37:26;;;;;;;;;;;;;;;;;;4990968;28;19918;-67
2022/08/15 09:39:51;;;;;;;;;;;;;;;;;;4989822;28;19918;-68
2022/08/15 09:42:18;;;;;;;;;;;;;;;;;;4987815;28;19929;-67
2022/08/15 09:44:44;;;;;;;;;;;;;;;;;;4991072;28;19922;-66
2022/08/15 09:47:10;;;;;;;;;;;;;;;;;;4986466;28;19918;-67
2022/08/15 09:49:35;;;;;;;;;;;;;;;;;;4988960;28;19921;-66
2022/08/15 09:52:01;;;;;;;;;;;;;;;;;;4984566;28;19921;-66
2022/08/15 09:54:26;;;;;;;;;;;;;;;;;;4990915;28;19914;-66
2022/08/15 09:56:52;;;;;;;;;;;;;;;;;;5003119;28;20001;-67
2022/08/15 09:59:17;;;;;;;;;;;;;;;;;;4985700;28;20381;-67
2022/08/15 10:01:42;;;;;;;;;;;;;;;;;;4991933;28;20394;-67
2022/08/15 10:04:07;;;;;;;;;;;;;;;;;;4990343;28;19924;-67
2022/08/15 10:06:33;;;;;;;;;;;;;;;;;;4988511;28;19917;-67
2022/08/15 10:08:59;;;;;;;;;;;;;;;;;;4992582;28;19972;-65
2022/08/15 10:11:24;;;;;;;;;;;;;;;;;;4991342;28;19989;-64
2022/08/15 10:13:50;;;;;;;;;;;;;;;;;;4993380;28;19914;-59
2022/08/15 10:16:15;;;;;;;;;;;;;;;;;;4992638;28;19914;-57
2022/08/15 10:18:41;;;;;;;;;;;;;;;;;;5014035;28;19967;-61
2022/08/15 10:21:06;;;;;;;;;;;;;;;;;;5011283;28;19921;-59
2022/08/15 10:23:32;;;;;;;;;;;;;;;;;;5009268;28;20385;-58
2022/08/15 10:25:57;;;;;;;;;;;;;;;;;;5011116;28;20008;-59
2022/08/15 10:28:22;;;;;;;;;;;;;;;;;;5013713;28;20345;-59
2022/08/15 10:30:48;;;;;;;;;;;;;;;;;;5018268;28;20469;-60
2022/08/15 10:33:15;;;;;;;;;;;;;;;;;;5013408;28;19968;-58
2022/08/15 10:35:44;;;;;;;;;;;;;;;;;;5014295;28;19936;-58
2022/08/15 10:38:10;;;;;;;;;;;;;;;;;;5019347;28;20203;-58
2022/08/15 10:40:36;;;;;;;;;;;;;;;;;;5020836;28;19914;-58
2022/08/15 10:43:01;;;;;;;;;;;;;;;;;;5012219;28;20003;-59
2022/08/15 10:45:29;;;;;;;;;;;;;;;;;;5013914;28;19991;-58
2022/08/15 10:47:55;;;;;;;;;;;;;;;;;;5012971;28;19941;-59
2022/08/15 10:50:20;;;;;;;;;;;;;;;;;;5019020;28;19914;-58
2022/08/15 10:52:45;;;;;;;;;;;;;;;;;;5009272;28;19967;-58
2022/08/15 10:55:12;;;;;;;;;;;;;;;;;;5009768;28;19913;-58
2022/08/15 10:57:38;;;;;;;;;;;;;;;;;;5022914;28;19932;-59
2022/08/15 11:00:04;;;;;;;;;;;;;;;;;;5027571;28;20417;-56
2022/08/15 11:02:31;;;;;;;;;;;;;;;;;;5019341;28;19920;-59
2022/08/15 11:04:56;;;;;;;;;;;;;;;;;;5019738;28;20285;-57
2022/08/15 11:07:21;;;;;;;;;;;;;;;;;;5014711;28;19913;-58
2022/08/15 11:09:47;;;;;;;;;;;;;;;;;;5004503;28;20057;-58
2022/08/15 11:12:12;;;;;;;;;;;;;;;;;;5019651;28;19913;-59
2022/08/15 11:14:39;;;;;;;;;;;;;;;;;;5022917;28;19925;-59
2022/08/15 11:17:04;;;;;;;;;;;;;;;;;;5024326;28;19921;-57
2022/08/15 11:19:30;;;;;;;;;;;;;;;;;;5031017;28;19925;-57
2022/08/15 11:21:55;;;;;;;;;;;;;;;;;;5014595;28;20037;-58
2022/08/15 11:24:21;;;;;;;;;;;;;;;;;;5023124;28;20346;-59
2022/08/15 11:26:46;;;;;;;;;;;;;;;;;;5019294;28;19913;-57
2022/08/15 11:29:14;;;;;;;;;;;;;;;;;;5006971;28;19920;-63
2022/08/15 11:31:39;;;;;;;;;;;;;;;;;;5002623;28;19928;-63
2022/08/15 11:34:04;;;;;;;;;;;;;;;;;;4993783;28;19910;-63
2022/08/15 11:36:30;;;;;;;;;;;;;;;;;;4998965;28;19913;-63
2022/08/15 11:38:55;;;;;;;;;;;;;;;;;;5006551;28;19914;-62
2022/08/15 11:41:20;;;;;;;;;;;;;;;;;;5018365;28;20373;-66
2022/08/15 11:43:45;;;;;;;;;;;;;;;;;;5012414;28;20374;-63
2022/08/15 11:46:10;;;;;;;;;;;;;;;;;;5017821;28;20285;-66
2022/08/15 11:48:38;;;;;;;;;;;;;;;;;;5017345;28;20005;-65
2022/08/15 11:51:03;;;;;;;;;;;;;;;;;;5002202;28;19928;-64
2022/08/15 11:53:28;;;;;;;;;;;;;;;;;;5014003;28;19917;-65
2022/08/15 11:55:53;;;;;;;;;;;;;;;;;;5018228;28;20282;-65
2022/08/15 11:58:19;;;;;;;;;;;;;;;;;;5019026;28;20309;-64
2022/08/15 12:00:45;;;;;;;;;;;;;;;;;;5009538;28;20016;-63
2022/08/15 12:03:10;;;;;;;;;;;;;;;;;;5030635;28;20016;-62
2022/08/15 12:05:36;;;;;;;;;;;;;;;;;;5006718;28;20298;-63
2022/08/15 12:08:01;;;;;;;;;;;;;;;;;;5030858;28;19942;-63
2022/08/15 12:10:26;;;;;;;;;;;;;;;;;;5009886;28;19914;-63
2022/08/15 12:12:51;;;;;;;;;;;;;;;;;;5014513;28;19914;-63
2022/08/15 12:15:16;;;;;;;;;;;;;;;;;;5021697;28;20304;-62
2022/08/15 12:17:45;;;;;;;;;;;;;;;;;;5028943;28;20011;-59
2022/08/15 12:20:10;;;;;;;;;;;;;;;;;;5023608;28;20396;-62
2022/08/15 12:22:35;;;;;;;;;;;;;;;;;;5007543;28;19973;-61
2022/08/15 12:25:00;;;;;;;;;;;;;;;;;;5023443;28;19963;-60
2022/08/15 12:27:25;;;;;;;;;;;;;;;;;;5008612;28;19961;-62
2022/08/15 12:29:51;;;;;;;;;;;;;;;;;;5011325;28;19956;-64
2022/08/15 12:32:16;;;;;;;;;;;;;;;;;;5020716;28;20338;-63
2022/08/15 12:34:41;;;;;;;;;;;;;;;;;;5016115;28;19996;-62
2022/08/15 12:37:06;;;;;;;;;;;;;;;;;;5008996;28;19917;-62
2022/08/15 12:39:31;;;;;;;;;;;;;;;;;;5014640;28;19924;-64
2022/08/15 12:41:57;;;;;;;;;;;;;;;;;;5017735;28;19923;-64
2022/08/15 12:44:22;;;;;;;;;;;;;;;;;;5026196;28;20300;-65
2022/08/15 12:46:47;;;;;;;;;;;;;;;;;;5007900;28;20555;-61
2022/08/15 12:49:12;;;;;;;;;;;;;;;;;;5026297;28;19915;-65
2022/08/15 12:51:37;;;;;;;;;;;;;;;;;;5006267;28;19913;-64
2022/08/15 12:54:03;;;;;;;;;;;;;;;;;;5014368;28;19963;-62
2022/08/15 12:56:28;;;;;;;;;;;;;;;;;;4996123;28;19913;-62
2022/08/15 12:58:53;;;;;;;;;;;;;;;;;;5012636;28;19918;-63
2022/08/15 13:01:18;;;;;;;;;;;;;;;;;;5012125;28;19924;-61
2022/08/15 13:03:43;;;;;;;;;;;;;;;;;;5013856;28;19972;-61
2022/08/15 13:06:08;;;;;;;;;;;;;;;;;;5020813;28;19920;-62
2022/08/15 13:08:34;;;;;;;;;;;;;;;;;;5021107;28;20000;-62
2022/08/15 13:10:59;;;;;;;;;;;;;;;;;;4998110;28;19914;-65
2022/08/15 13:13:24;;;;;;;;;;;;;;;;;;5023431;28;19914;-62
2022/08/15 13:15:49;;;;;;;;;;;;;;;;;;5009331;28;20389;-61
2022/08/15 13:18:14;;;;;;;;;;;;;;;;;;5015672;28;19921;-63
2022/08/15 13:23:39;;;;;;;;;;;;;;;;;;4992714;28;19958;-61
2022/08/15 13:26:05;;;;;;;;;;;;;;;;;;4996959;28;19922;-62
2022/08/15 13:28:31;;;;;;;;;;;;;;;;;;5031776;28;19960;-62
2022/08/15 13:30:56;;;;;;;;;;;;;;;;;;5010032;28;19921;-64
2022/08/15 13:33:21;;;;;;;;;;;;;;;;;;4992896;28;20107;-60
2022/08/15 13:35:46;;;;;;;;;;;;;;;;;;5002393;28;19960;-66
2022/08/15 13:38:11;;;;;;;;;;;;;;;;;;5008118;28;19976;-63
2022/08/15 13:40:38;;;;;;;;;;;;;;;;;;5003261;28;19920;-64
2022/08/15 13:43:03;;;;;;;;;;;;;;;;;;4998466;28;19979;-63
2022/08/15 13:45:28;;;;;;;;;;;;;;;;;;5027877;28;19913;-61
2022/08/15 13:47:54;;;;;;;;;;;;;;;;;;5014677;28;20396;-61
2022/08/15 13:50:19;;;;;;;;;;;;;;;;;;5021563;28;20404;-61
2022/08/15 13:52:44;;;;;;;;;;;;;;;;;;5006585;28;19914;-65
2022/08/15 13:55:09;;;;;;;;;;;;;;;;;;5010493;28;19921;-62
2022/08/15 13:57:34;;;;;;;;;;;;;;;;;;5005656;28;19928;-65
2022/08/15 14:00:00;;;;;;;;;;;;;;;;;;5012964;28;19936;-62
2022/08/15 14:02:25;;;;;;;;;;;;;;;;;;4992674;28;19921;-63
2022/08/15 14:04:50;;;;;;;;;;;;;;;;;;4999652;28;19914;-66
2022/08/15 14:07:15;;;;;;;;;;;;;;;;;;5000913;28;20015;-67
2022/08/15 14:09:40;;;;;;;;;;;;;;;;;;5004562;28;19929;-67
2022/08/15 14:12:05;;;;;;;;;;;;;;;;;;5007640;28;19921;-67
2022/08/15 14:14:30;;;;;;;;;;;;;;;;;;5012095;28;19913;-68
2022/08/15 14:16:56;;;;;;;;;;;;;;;;;;5010485;28;20004;-66
2022/08/15 14:19:21;;;;;;;;;;;;;;;;;;5004642;28;19917;-67
2022/08/15 14:21:47;;;;;;;;;;;;;;;;;;5015730;28;19930;-69
2022/08/15 14:24:12;;;;;;;;;;;;;;;;;;4994544;28;19917;-66
2022/08/15 14:26:38;;;;;;;;;;;;;;;;;;5009171;28;19989;-67
2022/08/15 14:29:03;;;;;;;;;;;;;;;;;;5003096;28;19913;-67
2022/08/15 14:31:30;;;;;;;;;;;;;;;;;;5024671;28;19913;-67
2022/08/15 14:33:55;;;;;;;;;;;;;;;;;;4990772;28;19953;-63
2022/08/15 14:36:20;;;;;;;;;;;;;;;;;;4999855;28;19913;-58
2022/08/15 14:38:46;;;;;;;;;;;;;;;;;;5011115;28;19925;-67
2022/08/15 14:41:13;;;;;;;;;;;;;;;;;;5010387;28;19914;-64
2022/08/15 14:43:38;;;;;;;;;;;;;;;;;;5009454;28;20060;-60
2022/08/15 14:46:03;;;;;;;;;;;;;;;;;;5010976;28;20012;-62
2022/08/15 14:48:30;;;;;;;;;;;;;;;;;;5006087;28;20437;-64
2022/08/15 14:50:58;;;;;;;;;;;;;;;;;;4997234;28;19978;-65
2022/08/15 14:53:24;;;;;;;;;;;;;;;;;;5007803;28;19928;-68
2022/08/15 14:55:49;;;;;;;;;;;;;;;;;;4975652;28;19922;-63
2022/08/15 14:58:14;;;;;;;;;;;;;;;;;;5009719;28;20691;-61
2022/08/15 15:00:40;;;;;;;;;;;;;;;;;;4996341;28;20072;-70
2022/08/15 15:03:05;;;;;;;;;;;;;;;;;;4985829;28;19934;-67
2022/08/15 15:05:31;;;;;;;;;;;;;;;;;;4993872;28;19914;-67
2022/08/15 15:07:57;;;;;;;;;;;;;;;;;;5002579;28;20427;-65
2022/08/15 15:10:22;;;;;;;;;;;;;;;;;;4975254;28;19981;-65
2022/08/15 15:12:48;;;;;;;;;;;;;;;;;;5004477;28;19921;-67
2022/08/15 15:15:13;;;;;;;;;;;;;;;;;;4993921;28;20334;-67
2022/08/15 15:17:39;;;;;;;;;;;;;;;;;;4983007;28;19932;-67
2022/08/15 15:20:04;;;;;;;;;;;;;;;;;;5006350;28;19918;-66
2022/08/15 15:22:29;;;;;;;;;;;;;;;;;;4989301;28;19922;-67
2022/08/15 15:24:54;;;;;;;;;;;;;;;;;;4992495;28;20230;-67
2022/08/15 15:27:20;;;;;;;;;;;;;;;;;;5010951;28;19917;-67
2022/08/15 15:29:45;;;;;;;;;;;;;;;;;;5009699;28;19913;-66
2022/08/15 15:32:10;;;;;;;;;;;;;;;;;;5011497;28;19914;-66
2022/08/15 15:34:35;;;;;;;;;;;;;;;;;;5009482;28;19913;-66
2022/08/15 15:37:00;;;;;;;;;;;;;;;;;;5007122;28;20008;-66
2022/08/15 15:39:25;;;;;;;;;;;;;;;;;;5005105;28;19969;-66
2022/08/15 15:41:50;;;;;;;;;;;;;;;;;;5012723;28;19957;-66
2022/08/15 15:44:15;;;;;;;;;;;;;;;;;;4987385;28;19944;-67
2022/08/15 15:46:41;;;;;;;;;;;;;;;;;;5006161;28;19914;-66
2022/08/15 15:49:06;;;;;;;;;;;;;;;;;;5006309;28;20496;-66
2022/08/15 15:51:31;;;;;;;;;;;;;;;;;;5003314;28;20413;-67
2022/08/15 15:53:56;;;;;;;;;;;;;;;;;;5003861;28;20308;-66
2022/08/15 15:56:21;;;;;;;;;;;;;;;;;;5008772;28;20281;-66
2022/08/15 15:58:46;;;;;;;;;;;;;;;;;;5010254;28;19949;-66
2022/08/15 16:01:12;;;;;;;;;;;;;;;;;;4986070;28;19921;-67
2022/08/15 16:03:37;;;;;;;;;;;;;;;;;;5003017;28;19960;-67
2022/08/15 16:06:02;;;;;;;;;;;;;;;;;;5005047;28;20015;-65
2022/08/15 16:08:27;;;;;;;;;;;;;;;;;;4989645;28;19917;-67
2022/08/15 16:10:52;;;;;;;;;;;;;;;;;;5011285;28;19957;-67
2022/08/15 16:13:17;;;;;;;;;;;;;;;;;;4995416;28;20773;-67
2022/08/15 16:15:42;;;;;;;;;;;;;;;;;;5005821;28;19921;-67
2022/08/15 16:18:08;;;;;;;;;;;;;;;;;;4997238;28;20267;-67
2022/08/15 16:20:33;;;;;;;;;;;;;;;;;;4989886;28;20282;-67
2022/08/15 16:22:58;;;;;;;;;;;;;;;;;;4986115;28;20390;-67
2022/08/15 16:25:23;;;;;;;;;;;;;;;;;;4988741;28;19914;-67
2022/08/15 16:27:48;;;;;;;;;;;;;;;;;;4991139;28;19964;-67
2022/08/15 16:30:13;;;;;;;;;;;;;;;;;;4990997;28;19918;-67
2022/08/15 16:32:39;;;;;;;;;;;;;;;;;;4988787;28;20450;-67
2022/08/15 16:35:04;;;;;;;;;;;;;;;;;;4990591;28;19913;-67
2022/08/15 16:37:30;;;;;;;;;;;;;;;;;;4989708;28;19913;-67
2022/08/15 16:39:55;;;;;;;;;;;;;;;;;;4993111;28;19965;-67
2022/08/15 16:42:20;;;;;;;;;;;;;;;;;;4990966;28;19918;-67